sensor_id;sensor_type;location;lat;lon;timestamp;P1;durP1;ratioP1;P2;durP2;ratioP2
13891;SDS011;7016;48.172;8.058;2023-11-19T00:02:23;6.38;;;1.00;;
13891;SDS011;7016;48.172;8.058;2023-11-19T00:04:49;1.48;;;0.90;;
13891;SDS011;7016;48.172;8.058;2023-11-19T00:07:14;5.93;;;0.90;;
13891;SDS011;7016;48.172;8.058;2023-11-19T00:09:40;3.33;;;1.10;;
13891;SDS011;7016;48.172;8.058;2023-11-19T00:12:07;2.08;;;1.00;;
13891;SDS011;7016;48.172;8.058;2023-11-19T00:14:33;3.28;;;1.35;;
13891;SDS011;7016;48.172;8.058;2023-11-19T00:16:59;4.65;;;1.13;;
13891;SDS011;7016;48.172;8.058;2023-11-19T00:19:25;1.98;;;0.95;;
13891;SDS011;7016;48.172;8.058;2023-11-19T00:21:52;2.90;;;1.00;;
13891;SDS011;7016;48.172;8.058;2023-11-19T00:24:18;4.93;;;1.30;;
13891;SDS011;7016;48.172;8.058;2023-11-19T00:26:44;3.65;;;1.02;;
13891;SDS011;7016;48.172;8.058;2023-11-19T00:29:10;4.50;;;0.95;;
13891;SDS011;7016;48.172;8.058;2023-11-19T00:31:35;2.22;;;1.17;;
13891;SDS011;7016;48.172;8.058;2023-11-19T00:34:01;2.92;;;1.15;;
13891;SDS011;7016;48.172;8.058;2023-11-19T00:36:28;2.25;;;1.30;;
13891;SDS011;7016;48.172;8.058;2023-11-19T00:38:54;3.88;;;1.52;;
13891;SDS011;7016;48.172;8.058;2023-11-19T00:41:19;3.88;;;1.67;;
13891;SDS011;7016;48.172;8.058;2023-11-19T00:43:45;2.47;;;1.35;;
13891;SDS011;7016;48.172;8.058;2023-11-19T00:46:11;3.85;;;1.20;;
13891;SDS011;7016;48.172;8.058;2023-11-19T00:48:38;6.07;;;1.20;;
13891;SDS011;7016;48.172;8.058;2023-11-19T00:51:04;3.83;;;1.33;;
13891;SDS011;7016;48.172;8.058;2023-11-19T00:53:30;5.65;;;1.05;;
13891;SDS011;7016;48.172;8.058;2023-11-19T00:55:57;4.50;;;1.48;;
13891;SDS011;7016;48.172;8.058;2023-11-19T00:58:23;3.85;;;1.35;;
13891;SDS011;7016;48.172;8.058;2023-11-19T01:00:48;2.42;;;1.20;;
13891;SDS011;7016;48.172;8.058;2023-11-19T01:03:14;3.25;;;1.15;;
13891;SDS011;7016;48.172;8.058;2023-11-19T01:05:43;3.47;;;1.20;;
13891;SDS011;7016;48.172;8.058;2023-11-19T01:08:09;2.28;;;1.20;;
13891;SDS011;7016;48.172;8.058;2023-11-19T01:10:38;3.78;;;1.20;;
13891;SDS011;7016;48.172;8.058;2023-11-19T01:13:04;2.47;;;1.00;;
13891;SDS011;7016;48.172;8.058;2023-11-19T01:15:31;5.10;;;1.48;;
13891;SDS011;7016;48.172;8.058;2023-11-19T01:17:57;3.55;;;1.50;;
13891;SDS011;7016;48.172;8.058;2023-11-19T01:20:23;1.80;;;1.05;;
13891;SDS011;7016;48.172;8.058;2023-11-19T01:22:49;2.35;;;1.00;;
13891;SDS011;7016;48.172;8.058;2023-11-19T01:25:15;2.88;;;1.10;;
13891;SDS011;7016;48.172;8.058;2023-11-19T01:27:41;3.25;;;1.27;;
13891;SDS011;7016;48.172;8.058;2023-11-19T01:30:07;4.00;;;1.27;;
13891;SDS011;7016;48.172;8.058;2023-11-19T01:32:35;3.38;;;1.52;;
13891;SDS011;7016;48.172;8.058;2023-11-19T01:35:02;2.40;;;1.02;;
13891;SDS011;7016;48.172;8.058;2023-11-19T01:37:29;1.90;;;0.90;;
13891;SDS011;7016;48.172;8.058;2023-11-19T01:39:54;3.35;;;1.23;;
13891;SDS011;7016;48.172;8.058;2023-11-19T01:42:20;1.90;;;1.13;;
13891;SDS011;7016;48.172;8.058;2023-11-19T01:44:58;1.83;;;0.93;;
13891;SDS011;7016;48.172;8.058;2023-11-19T01:47:28;4.65;;;1.05;;
13891;SDS011;7016;48.172;8.058;2023-11-19T01:49:55;2.28;;;1.10;;
13891;SDS011;7016;48.172;8.058;2023-11-19T01:52:22;1.88;;;1.00;;
13891;SDS011;7016;48.172;8.058;2023-11-19T01:54:48;2.63;;;1.00;;
13891;SDS011;7016;48.172;8.058;2023-11-19T01:57:15;2.85;;;1.27;;
13891;SDS011;7016;48.172;8.058;2023-11-19T01:59:41;1.70;;;1.10;;
13891;SDS011;7016;48.172;8.058;2023-11-19T02:02:07;3.25;;;0.90;;
13891;SDS011;7016;48.172;8.058;2023-11-19T02:04:33;2.28;;;1.13;;
13891;SDS011;7016;48.172;8.058;2023-11-19T02:07:00;2.60;;;1.30;;
13891;SDS011;7016;48.172;8.058;2023-11-19T02:09:26;2.03;;;1.20;;
13891;SDS011;7016;48.172;8.058;2023-11-19T02:11:52;2.53;;;1.25;;
13891;SDS011;7016;48.172;8.058;2023-11-19T02:14:19;2.15;;;1.35;;
13891;SDS011;7016;48.172;8.058;2023-11-19T02:16:49;3.10;;;1.15;;
13891;SDS011;7016;48.172;8.058;2023-11-19T02:19:14;3.72;;;1.20;;
13891;SDS011;7016;48.172;8.058;2023-11-19T02:21:40;2.47;;;1.15;;
13891;SDS011;7016;48.172;8.058;2023-11-19T02:24:07;2.67;;;1.00;;
13891;SDS011;7016;48.172;8.058;2023-11-19T02:26:39;2.88;;;1.10;;
13891;SDS011;7016;48.172;8.058;2023-11-19T02:29:09;2.22;;;1.10;;
13891;SDS011;7016;48.172;8.058;2023-11-19T02:31:34;4.40;;;1.40;;
13891;SDS011;7016;48.172;8.058;2023-11-19T02:34:01;5.32;;;1.00;;
13891;SDS011;7016;48.172;8.058;2023-11-19T02:36:27;2.47;;;1.17;;
13891;SDS011;7016;48.172;8.058;2023-11-19T02:38:53;5.78;;;1.35;;
13891;SDS011;7016;48.172;8.058;2023-11-19T02:41:20;2.72;;;1.30;;
13891;SDS011;7016;48.172;8.058;2023-11-19T02:43:45;5.07;;;1.23;;
13891;SDS011;7016;48.172;8.058;2023-11-19T02:46:13;2.45;;;1.40;;
13891;SDS011;7016;48.172;8.058;2023-11-19T02:48:39;2.00;;;1.23;;
13891;SDS011;7016;48.172;8.058;2023-11-19T02:51:05;1.83;;;1.00;;
13891;SDS011;7016;48.172;8.058;2023-11-19T02:53:34;3.70;;;1.20;;
13891;SDS011;7016;48.172;8.058;2023-11-19T02:56:02;2.05;;;1.25;;
13891;SDS011;7016;48.172;8.058;2023-11-19T02:58:36;2.13;;;1.05;;
13891;SDS011;7016;48.172;8.058;2023-11-19T03:01:03;2.33;;;1.45;;
13891;SDS011;7016;48.172;8.058;2023-11-19T03:06:05;1.35;;;1.00;;
13891;SDS011;7016;48.172;8.058;2023-11-19T03:08:35;2.03;;;1.10;;
13891;SDS011;7016;48.172;8.058;2023-11-19T03:11:01;1.77;;;1.10;;
13891;SDS011;7016;48.172;8.058;2023-11-19T03:13:27;2.08;;;1.13;;
13891;SDS011;7016;48.172;8.058;2023-11-19T03:15:52;2.45;;;1.05;;
13891;SDS011;7016;48.172;8.058;2023-11-19T03:18:21;1.90;;;1.17;;
13891;SDS011;7016;48.172;8.058;2023-11-19T03:20:46;2.03;;;1.40;;
13891;SDS011;7016;48.172;8.058;2023-11-19T03:23:12;1.50;;;1.13;;
13891;SDS011;7016;48.172;8.058;2023-11-19T03:25:38;2.17;;;1.20;;
13891;SDS011;7016;48.172;8.058;2023-11-19T03:28:04;2.90;;;1.15;;
13891;SDS011;7016;48.172;8.058;2023-11-19T03:30:30;2.60;;;1.40;;
13891;SDS011;7016;48.172;8.058;2023-11-19T03:32:56;1.20;;;1.08;;
13891;SDS011;7016;48.172;8.058;2023-11-19T03:35:23;2.00;;;1.10;;
13891;SDS011;7016;48.172;8.058;2023-11-19T03:37:50;3.20;;;1.20;;
13891;SDS011;7016;48.172;8.058;2023-11-19T03:40:17;1.35;;;0.70;;
13891;SDS011;7016;48.172;8.058;2023-11-19T03:42:44;2.35;;;1.20;;
13891;SDS011;7016;48.172;8.058;2023-11-19T03:45:10;1.55;;;1.25;;
13891;SDS011;7016;48.172;8.058;2023-11-19T03:47:37;2.95;;;0.93;;
13891;SDS011;7016;48.172;8.058;2023-11-19T03:50:03;2.38;;;1.20;;
13891;SDS011;7016;48.172;8.058;2023-11-19T03:52:29;2.20;;;1.10;;
13891;SDS011;7016;48.172;8.058;2023-11-19T03:54:55;1.48;;;0.90;;
13891;SDS011;7016;48.172;8.058;2023-11-19T03:57:23;3.70;;;1.00;;
13891;SDS011;7016;48.172;8.058;2023-11-19T03:59:49;1.15;;;0.80;;
13891;SDS011;7016;48.172;8.058;2023-11-19T04:02:15;2.63;;;0.82;;
13891;SDS011;7016;48.172;8.058;2023-11-19T04:04:41;1.92;;;1.00;;
13891;SDS011;7016;48.172;8.058;2023-11-19T04:07:07;1.10;;;0.70;;
13891;SDS011;7016;48.172;8.058;2023-11-19T04:09:33;1.00;;;0.80;;
13891;SDS011;7016;48.172;8.058;2023-11-19T04:11:59;1.30;;;0.80;;
13891;SDS011;7016;48.172;8.058;2023-11-19T04:14:25;1.15;;;0.88;;
13891;SDS011;7016;48.172;8.058;2023-11-19T04:16:52;0.95;;;0.73;;
13891;SDS011;7016;48.172;8.058;2023-11-19T04:19:18;1.45;;;0.90;;
13891;SDS011;7016;48.172;8.058;2023-11-19T04:21:45;1.88;;;0.80;;
13891;SDS011;7016;48.172;8.058;2023-11-19T04:24:12;1.75;;;0.90;;
13891;SDS011;7016;48.172;8.058;2023-11-19T04:26:42;2.38;;;0.70;;
13891;SDS011;7016;48.172;8.058;2023-11-19T04:29:11;1.52;;;0.60;;
13891;SDS011;7016;48.172;8.058;2023-11-19T04:31:37;1.70;;;0.65;;
13891;SDS011;7016;48.172;8.058;2023-11-19T04:34:04;0.70;;;0.52;;
13891;SDS011;7016;48.172;8.058;2023-11-19T04:36:31;0.68;;;0.50;;
13891;SDS011;7016;48.172;8.058;2023-11-19T04:38:58;0.50;;;0.40;;
13891;SDS011;7016;48.172;8.058;2023-11-19T04:41:25;0.80;;;0.68;;
13891;SDS011;7016;48.172;8.058;2023-11-19T04:43:52;1.20;;;0.50;;
13891;SDS011;7016;48.172;8.058;2023-11-19T04:46:19;1.35;;;0.50;;
13891;SDS011;7016;48.172;8.058;2023-11-19T04:48:45;0.88;;;0.52;;
13891;SDS011;7016;48.172;8.058;2023-11-19T04:51:10;0.50;;;0.40;;
13891;SDS011;7016;48.172;8.058;2023-11-19T04:53:36;1.02;;;0.50;;
13891;SDS011;7016;48.172;8.058;2023-11-19T04:56:07;1.45;;;0.57;;
13891;SDS011;7016;48.172;8.058;2023-11-19T04:58:34;0.95;;;0.57;;
13891;SDS011;7016;48.172;8.058;2023-11-19T05:01:02;1.60;;;0.30;;
13891;SDS011;7016;48.172;8.058;2023-11-19T05:03:31;0.77;;;0.38;;
13891;SDS011;7016;48.172;8.058;2023-11-19T05:05:57;0.57;;;0.40;;
13891;SDS011;7016;48.172;8.058;2023-11-19T05:08:23;1.35;;;0.60;;
13891;SDS011;7016;48.172;8.058;2023-11-19T05:10:49;1.15;;;0.30;;
13891;SDS011;7016;48.172;8.058;2023-11-19T05:13:14;0.60;;;0.40;;
13891;SDS011;7016;48.172;8.058;2023-11-19T05:15:40;0.60;;;0.30;;
13891;SDS011;7016;48.172;8.058;2023-11-19T05:18:06;0.90;;;0.35;;
13891;SDS011;7016;48.172;8.058;2023-11-19T05:20:32;2.00;;;0.90;;
13891;SDS011;7016;48.172;8.058;2023-11-19T05:22:58;0.85;;;0.60;;
13891;SDS011;7016;48.172;8.058;2023-11-19T05:25:25;0.73;;;0.38;;
13891;SDS011;7016;48.172;8.058;2023-11-19T05:27:52;1.10;;;0.50;;
13891;SDS011;7016;48.172;8.058;2023-11-19T05:30:18;1.15;;;0.55;;
13891;SDS011;7016;48.172;8.058;2023-11-19T05:32:43;0.60;;;0.30;;
13891;SDS011;7016;48.172;8.058;2023-11-19T05:35:09;0.98;;;0.32;;
13891;SDS011;7016;48.172;8.058;2023-11-19T05:37:36;0.55;;;0.20;;
13891;SDS011;7016;48.172;8.058;2023-11-19T05:40:01;0.50;;;0.40;;
13891;SDS011;7016;48.172;8.058;2023-11-19T05:42:29;1.13;;;0.40;;
13891;SDS011;7016;48.172;8.058;2023-11-19T05:44:55;0.70;;;0.40;;
13891;SDS011;7016;48.172;8.058;2023-11-19T05:47:21;0.50;;;0.22;;
13891;SDS011;7016;48.172;8.058;2023-11-19T05:49:46;0.60;;;0.40;;
13891;SDS011;7016;48.172;8.058;2023-11-19T05:52:12;0.57;;;0.40;;
13891;SDS011;7016;48.172;8.058;2023-11-19T05:54:38;1.13;;;0.40;;
13891;SDS011;7016;48.172;8.058;2023-11-19T05:57:04;0.47;;;0.25;;
13891;SDS011;7016;48.172;8.058;2023-11-19T05:59:34;1.55;;;0.28;;
13891;SDS011;7016;48.172;8.058;2023-11-19T06:02:01;0.98;;;0.32;;
13891;SDS011;7016;48.172;8.058;2023-11-19T06:04:27;0.80;;;0.40;;
13891;SDS011;7016;48.172;8.058;2023-11-19T06:06:53;2.28;;;0.57;;
13891;SDS011;7016;48.172;8.058;2023-11-19T06:09:20;1.13;;;0.50;;
13891;SDS011;7016;48.172;8.058;2023-11-19T06:11:48;0.60;;;0.40;;
13891;SDS011;7016;48.172;8.058;2023-11-19T06:14:17;0.40;;;0.30;;
13891;SDS011;7016;48.172;8.058;2023-11-19T06:16:43;0.40;;;0.30;;
13891;SDS011;7016;48.172;8.058;2023-11-19T06:19:09;0.52;;;0.30;;
13891;SDS011;7016;48.172;8.058;2023-11-19T06:21:37;0.50;;;0.30;;
13891;SDS011;7016;48.172;8.058;2023-11-19T06:24:02;0.40;;;0.28;;
13891;SDS011;7016;48.172;8.058;2023-11-19T06:26:28;0.60;;;0.30;;
13891;SDS011;7016;48.172;8.058;2023-11-19T06:28:54;1.02;;;0.30;;
13891;SDS011;7016;48.172;8.058;2023-11-19T06:31:19;1.40;;;0.30;;
13891;SDS011;7016;48.172;8.058;2023-11-19T06:33:46;2.38;;;0.40;;
13891;SDS011;7016;48.172;8.058;2023-11-19T06:36:14;1.55;;;0.30;;
13891;SDS011;7016;48.172;8.058;2023-11-19T06:38:41;0.43;;;0.30;;
13891;SDS011;7016;48.172;8.058;2023-11-19T06:41:07;3.67;;;0.43;;
13891;SDS011;7016;48.172;8.058;2023-11-19T06:43:34;0.60;;;0.40;;
13891;SDS011;7016;48.172;8.058;2023-11-19T06:46:01;0.63;;;0.40;;
13891;SDS011;7016;48.172;8.058;2023-11-19T06:48:27;0.85;;;0.40;;
13891;SDS011;7016;48.172;8.058;2023-11-19T06:50:53;0.68;;;0.30;;
13891;SDS011;7016;48.172;8.058;2023-11-19T06:53:19;0.60;;;0.40;;
13891;SDS011;7016;48.172;8.058;2023-11-19T06:55:44;1.70;;;0.50;;
13891;SDS011;7016;48.172;8.058;2023-11-19T06:58:10;2.53;;;0.43;;
13891;SDS011;7016;48.172;8.058;2023-11-19T07:00:37;2.78;;;0.50;;
13891;SDS011;7016;48.172;8.058;2023-11-19T07:03:02;1.45;;;0.40;;
13891;SDS011;7016;48.172;8.058;2023-11-19T07:05:28;1.08;;;0.40;;
13891;SDS011;7016;48.172;8.058;2023-11-19T07:07:55;0.73;;;0.40;;
13891;SDS011;7016;48.172;8.058;2023-11-19T07:10:21;0.70;;;0.40;;
13891;SDS011;7016;48.172;8.058;2023-11-19T07:12:46;0.90;;;0.40;;
13891;SDS011;7016;48.172;8.058;2023-11-19T07:15:12;1.35;;;0.50;;
13891;SDS011;7016;48.172;8.058;2023-11-19T07:17:39;0.70;;;0.60;;
13891;SDS011;7016;48.172;8.058;2023-11-19T07:20:05;2.28;;;0.60;;
13891;SDS011;7016;48.172;8.058;2023-11-19T07:22:31;1.67;;;0.68;;
13891;SDS011;7016;48.172;8.058;2023-11-19T07:24:57;1.35;;;0.60;;
13891;SDS011;7016;48.172;8.058;2023-11-19T07:27:23;0.98;;;0.47;;
13891;SDS011;7016;48.172;8.058;2023-11-19T07:29:49;0.57;;;0.40;;
13891;SDS011;7016;48.172;8.058;2023-11-19T07:32:15;2.05;;;0.75;;
13891;SDS011;7016;48.172;8.058;2023-11-19T07:34:40;1.30;;;0.50;;
13891;SDS011;7016;48.172;8.058;2023-11-19T07:37:06;0.70;;;0.50;;
13891;SDS011;7016;48.172;8.058;2023-11-19T07:39:32;0.85;;;0.50;;
13891;SDS011;7016;48.172;8.058;2023-11-19T07:41:58;0.82;;;0.50;;
13891;SDS011;7016;48.172;8.058;2023-11-19T07:44:24;0.90;;;0.40;;
13891;SDS011;7016;48.172;8.058;2023-11-19T07:46:49;2.08;;;0.90;;
13891;SDS011;7016;48.172;8.058;2023-11-19T07:49:15;1.80;;;0.77;;
13891;SDS011;7016;48.172;8.058;2023-11-19T07:51:41;1.10;;;0.65;;
13891;SDS011;7016;48.172;8.058;2023-11-19T07:54:06;1.05;;;0.43;;
13891;SDS011;7016;48.172;8.058;2023-11-19T07:56:35;3.55;;;0.70;;
13891;SDS011;7016;48.172;8.058;2023-11-19T07:59:01;1.55;;;0.60;;
13891;SDS011;7016;48.172;8.058;2023-11-19T08:01:27;0.95;;;0.60;;
13891;SDS011;7016;48.172;8.058;2023-11-19T08:03:53;1.90;;;0.73;;
13891;SDS011;7016;48.172;8.058;2023-11-19T08:06:19;1.15;;;0.50;;
13891;SDS011;7016;48.172;8.058;2023-11-19T08:08:45;1.00;;;0.60;;
13891;SDS011;7016;48.172;8.058;2023-11-19T08:11:10;1.88;;;0.60;;
13891;SDS011;7016;48.172;8.058;2023-11-19T08:13:36;1.77;;;0.50;;
13891;SDS011;7016;48.172;8.058;2023-11-19T08:16:02;0.80;;;0.60;;
13891;SDS011;7016;48.172;8.058;2023-11-19T08:18:27;3.63;;;0.60;;
13891;SDS011;7016;48.172;8.058;2023-11-19T08:20:53;1.42;;;0.63;;
13891;SDS011;7016;48.172;8.058;2023-11-19T08:23:19;1.60;;;0.60;;
13891;SDS011;7016;48.172;8.058;2023-11-19T08:25:45;1.08;;;0.57;;
13891;SDS011;7016;48.172;8.058;2023-11-19T08:28:11;1.20;;;0.65;;
13891;SDS011;7016;48.172;8.058;2023-11-19T08:30:37;1.30;;;0.80;;
13891;SDS011;7016;48.172;8.058;2023-11-19T08:33:03;1.00;;;0.60;;
13891;SDS011;7016;48.172;8.058;2023-11-19T08:35:31;0.88;;;0.68;;
13891;SDS011;7016;48.172;8.058;2023-11-19T08:37:56;1.60;;;0.77;;
13891;SDS011;7016;48.172;8.058;2023-11-19T08:40:24;0.98;;;0.65;;
13891;SDS011;7016;48.172;8.058;2023-11-19T08:42:51;2.65;;;0.80;;
13891;SDS011;7016;48.172;8.058;2023-11-19T08:45:18;2.90;;;0.80;;
13891;SDS011;7016;48.172;8.058;2023-11-19T08:47:44;2.78;;;0.90;;
13891;SDS011;7016;48.172;8.058;2023-11-19T08:50:10;2.22;;;0.80;;
13891;SDS011;7016;48.172;8.058;2023-11-19T08:52:36;1.52;;;0.50;;
13891;SDS011;7016;48.172;8.058;2023-11-19T08:55:02;1.92;;;0.63;;
13891;SDS011;7016;48.172;8.058;2023-11-19T08:57:30;3.38;;;0.88;;
13891;SDS011;7016;48.172;8.058;2023-11-19T08:59:59;2.38;;;0.63;;
13891;SDS011;7016;48.172;8.058;2023-11-19T09:02:25;1.48;;;0.90;;
13891;SDS011;7016;48.172;8.058;2023-11-19T09:04:50;1.45;;;0.98;;
13891;SDS011;7016;48.172;8.058;2023-11-19T09:07:16;1.23;;;0.65;;
13891;SDS011;7016;48.172;8.058;2023-11-19T09:09:42;1.48;;;0.70;;
13891;SDS011;7016;48.172;8.058;2023-11-19T09:12:08;3.45;;;0.70;;
13891;SDS011;7016;48.172;8.058;2023-11-19T09:14:33;2.08;;;0.70;;
13891;SDS011;7016;48.172;8.058;2023-11-19T09:17:00;1.73;;;0.70;;
13891;SDS011;7016;48.172;8.058;2023-11-19T09:19:26;1.15;;;0.70;;
13891;SDS011;7016;48.172;8.058;2023-11-19T09:21:52;2.75;;;0.80;;
13891;SDS011;7016;48.172;8.058;2023-11-19T09:24:18;1.40;;;0.80;;
13891;SDS011;7016;48.172;8.058;2023-11-19T09:26:44;2.78;;;0.70;;
13891;SDS011;7016;48.172;8.058;2023-11-19T09:29:09;2.05;;;0.75;;
13891;SDS011;7016;48.172;8.058;2023-11-19T09:31:37;1.17;;;0.70;;
13891;SDS011;7016;48.172;8.058;2023-11-19T09:34:04;1.23;;;0.60;;
13891;SDS011;7016;48.172;8.058;2023-11-19T09:36:30;4.63;;;0.70;;
13891;SDS011;7016;48.172;8.058;2023-11-19T09:38:56;0.70;;;0.50;;
13891;SDS011;7016;48.172;8.058;2023-11-19T09:41:22;2.67;;;0.82;;
13891;SDS011;7016;48.172;8.058;2023-11-19T09:43:49;1.45;;;0.70;;
13891;SDS011;7016;48.172;8.058;2023-11-19T09:46:16;2.38;;;0.63;;
13891;SDS011;7016;48.172;8.058;2023-11-19T09:48:42;2.75;;;0.70;;
13891;SDS011;7016;48.172;8.058;2023-11-19T09:51:10;1.70;;;0.80;;
13891;SDS011;7016;48.172;8.058;2023-11-19T09:53:36;1.10;;;0.80;;
13891;SDS011;7016;48.172;8.058;2023-11-19T09:56:02;3.72;;;0.75;;
13891;SDS011;7016;48.172;8.058;2023-11-19T09:58:30;1.25;;;0.70;;
13891;SDS011;7016;48.172;8.058;2023-11-19T10:00:56;2.92;;;1.13;;
13891;SDS011;7016;48.172;8.058;2023-11-19T10:03:24;3.05;;;0.90;;
13891;SDS011;7016;48.172;8.058;2023-11-19T10:05:52;3.30;;;0.90;;
13891;SDS011;7016;48.172;8.058;2023-11-19T10:08:22;1.50;;;0.80;;
13891;SDS011;7016;48.172;8.058;2023-11-19T10:10:47;1.30;;;0.80;;
13891;SDS011;7016;48.172;8.058;2023-11-19T10:13:14;1.75;;;1.20;;
13891;SDS011;7016;48.172;8.058;2023-11-19T10:15:40;3.47;;;1.30;;
13891;SDS011;7016;48.172;8.058;2023-11-19T10:18:06;1.45;;;0.75;;
13891;SDS011;7016;48.172;8.058;2023-11-19T10:20:40;4.13;;;1.42;;
13891;SDS011;7016;48.172;8.058;2023-11-19T10:25:32;1.10;;;1.00;;
13891;SDS011;7016;48.172;8.058;2023-11-19T10:27:58;2.97;;;0.90;;
13891;SDS011;7016;48.172;8.058;2023-11-19T10:30:29;4.00;;;1.35;;
13891;SDS011;7016;48.172;8.058;2023-11-19T10:33:12;4.32;;;1.02;;
13891;SDS011;7016;48.172;8.058;2023-11-19T10:38:27;1.40;;;1.15;;
13891;SDS011;7016;48.172;8.058;2023-11-19T10:40:53;3.72;;;1.13;;
13891;SDS011;7016;48.172;8.058;2023-11-19T10:43:20;1.02;;;0.70;;
13891;SDS011;7016;48.172;8.058;2023-11-19T10:45:47;3.45;;;1.10;;
13891;SDS011;7016;48.172;8.058;2023-11-19T10:48:13;1.38;;;0.80;;
13891;SDS011;7016;48.172;8.058;2023-11-19T10:50:40;2.03;;;1.00;;
13891;SDS011;7016;48.172;8.058;2023-11-19T10:53:08;1.98;;;0.73;;
13891;SDS011;7016;48.172;8.058;2023-11-19T10:55:36;1.90;;;1.10;;
13891;SDS011;7016;48.172;8.058;2023-11-19T10:58:06;1.50;;;0.73;;
13891;SDS011;7016;48.172;8.058;2023-11-19T11:00:43;1.58;;;0.88;;
13891;SDS011;7016;48.172;8.058;2023-11-19T11:03:24;0.90;;;0.70;;
13891;SDS011;7016;48.172;8.058;2023-11-19T11:05:52;1.60;;;0.70;;
13891;SDS011;7016;48.172;8.058;2023-11-19T11:08:19;1.08;;;0.70;;
13891;SDS011;7016;48.172;8.058;2023-11-19T11:10:48;2.15;;;0.80;;
13891;SDS011;7016;48.172;8.058;2023-11-19T11:13:18;1.20;;;0.60;;
13891;SDS011;7016;48.172;8.058;2023-11-19T11:15:44;1.10;;;0.63;;
13891;SDS011;7016;48.172;8.058;2023-11-19T11:18:12;3.22;;;0.90;;
13891;SDS011;7016;48.172;8.058;2023-11-19T11:20:38;2.00;;;0.85;;
13891;SDS011;7016;48.172;8.058;2023-11-19T11:25:52;9.52;;;0.90;;
13891;SDS011;7016;48.172;8.058;2023-11-19T11:29:04;1.52;;;0.68;;
13891;SDS011;7016;48.172;8.058;2023-11-19T11:39:51;2.58;;;0.80;;
13891;SDS011;7016;48.172;8.058;2023-11-19T11:50:12;4.85;;;1.48;;
13891;SDS011;7016;48.172;8.058;2023-11-19T11:55:28;1.80;;;0.88;;
13891;SDS011;7016;48.172;8.058;2023-11-19T11:57:59;4.05;;;1.73;;
13891;SDS011;7016;48.172;8.058;2023-11-19T12:00:40;2.95;;;1.65;;
13891;SDS011;7016;48.172;8.058;2023-11-19T12:03:09;3.30;;;1.10;;
13891;SDS011;7016;48.172;8.058;2023-11-19T12:05:45;1.77;;;1.00;;
13891;SDS011;7016;48.172;8.058;2023-11-19T12:08:12;4.82;;;1.23;;
13891;SDS011;7016;48.172;8.058;2023-11-19T12:10:47;2.30;;;0.95;;
13891;SDS011;7016;48.172;8.058;2023-11-19T12:13:14;4.20;;;1.55;;
13891;SDS011;7016;48.172;8.058;2023-11-19T12:16:26;12.02;;;5.55;;
13891;SDS011;7016;48.172;8.058;2023-11-19T12:18:32;2.85;;;1.60;;
13891;SDS011;7016;48.172;8.058;2023-11-19T12:21:01;2.00;;;1.10;;
13891;SDS011;7016;48.172;8.058;2023-11-19T12:23:30;3.78;;;1.10;;
13891;SDS011;7016;48.172;8.058;2023-11-19T12:25:57;3.25;;;0.98;;
13891;SDS011;7016;48.172;8.058;2023-11-19T12:28:23;3.58;;;1.10;;
13891;SDS011;7016;48.172;8.058;2023-11-19T12:30:51;3.08;;;0.98;;
13891;SDS011;7016;48.172;8.058;2023-11-19T12:33:18;1.38;;;1.00;;
13891;SDS011;7016;48.172;8.058;2023-11-19T12:35:45;2.42;;;1.25;;
13891;SDS011;7016;48.172;8.058;2023-11-19T12:38:18;4.75;;;1.05;;
13891;SDS011;7016;48.172;8.058;2023-11-19T12:41:03;4.32;;;1.30;;
13891;SDS011;7016;48.172;8.058;2023-11-19T12:43:33;1.63;;;1.10;;
13891;SDS011;7016;48.172;8.058;2023-11-19T12:46:03;3.50;;;1.20;;
13891;SDS011;7016;48.172;8.058;2023-11-19T12:48:50;1.35;;;1.00;;
13891;SDS011;7016;48.172;8.058;2023-11-19T12:51:16;1.50;;;0.90;;
13891;SDS011;7016;48.172;8.058;2023-11-19T12:53:49;2.42;;;1.10;;
13891;SDS011;7016;48.172;8.058;2023-11-19T12:56:15;2.25;;;1.10;;
13891;SDS011;7016;48.172;8.058;2023-11-19T12:58:41;6.13;;;1.27;;
13891;SDS011;7016;48.172;8.058;2023-11-19T13:01:08;2.15;;;1.20;;
13891;SDS011;7016;48.172;8.058;2023-11-19T13:03:37;1.73;;;1.10;;
13891;SDS011;7016;48.172;8.058;2023-11-19T13:06:07;5.68;;;2.00;;
13891;SDS011;7016;48.172;8.058;2023-11-19T13:16:39;5.75;;;1.40;;
13891;SDS011;7016;48.172;8.058;2023-11-19T13:19:05;2.50;;;1.02;;
13891;SDS011;7016;48.172;8.058;2023-11-19T13:21:30;1.60;;;0.85;;
13891;SDS011;7016;48.172;8.058;2023-11-19T13:23:56;2.83;;;1.20;;
13891;SDS011;7016;48.172;8.058;2023-11-19T13:26:22;3.17;;;0.98;;
13891;SDS011;7016;48.172;8.058;2023-11-19T13:28:48;2.55;;;0.90;;
13891;SDS011;7016;48.172;8.058;2023-11-19T13:31:14;1.83;;;1.10;;
13891;SDS011;7016;48.172;8.058;2023-11-19T13:33:40;2.17;;;0.95;;
13891;SDS011;7016;48.172;8.058;2023-11-19T13:36:06;1.25;;;0.90;;
13891;SDS011;7016;48.172;8.058;2023-11-19T13:38:35;4.57;;;1.20;;
13891;SDS011;7016;48.172;8.058;2023-11-19T13:41:02;4.65;;;1.00;;
13891;SDS011;7016;48.172;8.058;2023-11-19T13:43:29;2.20;;;0.98;;
13891;SDS011;7016;48.172;8.058;2023-11-19T13:45:55;4.13;;;1.17;;
13891;SDS011;7016;48.172;8.058;2023-11-19T13:48:23;1.30;;;0.90;;
13891;SDS011;7016;48.172;8.058;2023-11-19T13:50:49;2.60;;;0.90;;
13891;SDS011;7016;48.172;8.058;2023-11-19T13:53:15;2.40;;;0.90;;
13891;SDS011;7016;48.172;8.058;2023-11-19T13:55:41;1.70;;;0.90;;
13891;SDS011;7016;48.172;8.058;2023-11-19T13:58:07;1.98;;;1.00;;
13891;SDS011;7016;48.172;8.058;2023-11-19T14:00:33;1.90;;;0.90;;
13891;SDS011;7016;48.172;8.058;2023-11-19T14:02:58;2.22;;;0.70;;
13891;SDS011;7016;48.172;8.058;2023-11-19T14:05:24;2.08;;;1.00;;
13891;SDS011;7016;48.172;8.058;2023-11-19T14:07:50;2.67;;;0.90;;
13891;SDS011;7016;48.172;8.058;2023-11-19T14:10:16;2.58;;;0.88;;
13891;SDS011;7016;48.172;8.058;2023-11-19T14:12:42;2.70;;;0.90;;
13891;SDS011;7016;48.172;8.058;2023-11-19T14:15:09;1.42;;;0.70;;
13891;SDS011;7016;48.172;8.058;2023-11-19T14:17:37;2.83;;;0.80;;
13891;SDS011;7016;48.172;8.058;2023-11-19T14:20:04;1.77;;;1.00;;
13891;SDS011;7016;48.172;8.058;2023-11-19T14:22:41;3.53;;;1.10;;
13891;SDS011;7016;48.172;8.058;2023-11-19T14:25:11;3.97;;;0.93;;
13891;SDS011;7016;48.172;8.058;2023-11-19T14:27:38;1.85;;;0.70;;
13891;SDS011;7016;48.172;8.058;2023-11-19T14:30:08;3.08;;;0.80;;
13891;SDS011;7016;48.172;8.058;2023-11-19T14:32:38;3.90;;;0.90;;
13891;SDS011;7016;48.172;8.058;2023-11-19T14:35:05;2.80;;;1.13;;
13891;SDS011;7016;48.172;8.058;2023-11-19T14:37:32;2.90;;;1.00;;
13891;SDS011;7016;48.172;8.058;2023-11-19T14:39:58;2.35;;;0.95;;
13891;SDS011;7016;48.172;8.058;2023-11-19T14:42:24;4.30;;;0.88;;
13891;SDS011;7016;48.172;8.058;2023-11-19T14:44:50;4.05;;;0.90;;
13891;SDS011;7016;48.172;8.058;2023-11-19T14:47:20;2.60;;;0.93;;
13891;SDS011;7016;48.172;8.058;2023-11-19T14:49:46;5.90;;;0.85;;
13891;SDS011;7016;48.172;8.058;2023-11-19T14:52:12;3.67;;;1.05;;
13891;SDS011;7016;48.172;8.058;2023-11-19T14:54:38;2.45;;;0.70;;
13891;SDS011;7016;48.172;8.058;2023-11-19T14:57:04;1.52;;;0.75;;
13891;SDS011;7016;48.172;8.058;2023-11-19T14:59:36;2.33;;;0.88;;
13891;SDS011;7016;48.172;8.058;2023-11-19T15:02:02;1.95;;;0.90;;
13891;SDS011;7016;48.172;8.058;2023-11-19T15:04:28;4.50;;;1.50;;
13891;SDS011;7016;48.172;8.058;2023-11-19T15:06:58;1.88;;;1.15;;
13891;SDS011;7016;48.172;8.058;2023-11-19T15:09:24;4.10;;;1.08;;
13891;SDS011;7016;48.172;8.058;2023-11-19T15:11:51;3.88;;;1.10;;
13891;SDS011;7016;48.172;8.058;2023-11-19T15:14:19;4.72;;;1.17;;
13891;SDS011;7016;48.172;8.058;2023-11-19T15:16:45;2.95;;;1.10;;
13891;SDS011;7016;48.172;8.058;2023-11-19T15:19:11;4.07;;;1.20;;
13891;SDS011;7016;48.172;8.058;2023-11-19T15:21:39;5.82;;;1.25;;
13891;SDS011;7016;48.172;8.058;2023-11-19T15:24:05;5.63;;;1.45;;
13891;SDS011;7016;48.172;8.058;2023-11-19T15:26:33;3.15;;;1.02;;
13891;SDS011;7016;48.172;8.058;2023-11-19T15:29:00;3.97;;;1.40;;
13891;SDS011;7016;48.172;8.058;2023-11-19T15:31:26;3.28;;;1.10;;
13891;SDS011;7016;48.172;8.058;2023-11-19T15:33:52;4.32;;;1.30;;
13891;SDS011;7016;48.172;8.058;2023-11-19T15:36:18;5.03;;;1.60;;
13891;SDS011;7016;48.172;8.058;2023-11-19T15:38:44;5.75;;;1.42;;